Time,TemperatureF,DewpointF,PressureIn,WindDirection,WindDirectionDegrees,WindSpeedMPH,WindSpeedGustMPH,Humidity,HourlyPrecipIn,Conditions,Clouds,dailyrainin,SoftwareType,DateUTC
2013-01-28 00:12:00,59.4,57.1,29.74,SW,225,8.3,-999.0,92,-99.99,,,0.00,Acu-Link.com,2013-01-28 06:12:00,
2013-01-28 00:27:00,59.0,56.7,29.73,WSW,247,8.9,-999.0,92,-99.99,,,0.00,Acu-Link.com,2013-01-28 06:27:00,
2013-01-28 00:42:00,59.2,56.9,29.74,SW,225,9.4,-999.0,92,-99.99,,,0.00,Acu-Link.com,2013-01-28 06:42:00,
2013-01-28 00:57:00,59.4,57.1,29.74,WSW,247,6.3,-999.0,92,-99.99,,,0.00,Acu-Link.com,2013-01-28 06:57:00,
2013-01-28 01:12:00,59.2,57.2,29.74,SW,225,7.3,-999.0,93,-99.99,,,0.00,Acu-Link.com,2013-01-28 07:12:00,
2013-01-28 01:27:00,58.8,56.8,29.74,WSW,247,9.4,-999.0,93,-99.99,,,0.00,Acu-Link.com,2013-01-28 07:27:00,
2013-01-28 01:42:00,58.6,56.6,29.74,SW,225,4.2,-999.0,93,-99.99,,,0.00,Acu-Link.com,2013-01-28 07:42:00,
2013-01-28 01:58:00,58.6,56.6,29.75,WSW,247,6.3,-999.0,93,-99.99,,,0.00,Acu-Link.com,2013-01-28 07:58:00,
2013-01-28 02:13:00,58.6,56.9,29.74,West,270,5.3,-999.0,94,-99.99,,,0.00,Acu-Link.com,2013-01-28 08:13:00,
2013-01-28 02:28:00,59.0,57.3,29.74,West,270,6.3,-999.0,94,-99.99,,,0.00,Acu-Link.com,2013-01-28 08:28:00,
2013-01-28 02:43:00,59.4,57.7,29.74,WSW,247,7.8,-999.0,94,-99.99,,,0.00,Acu-Link.com,2013-01-28 08:43:00,
2013-01-28 02:58:00,60.1,58.1,29.75,WSW,247,7.3,-999.0,93,-99.99,,,0.00,Acu-Link.com,2013-01-28 08:58:00,
2013-01-28 03:15:00,59.9,57.9,29.75,West,270,7.8,-999.0,93,-99.99,,,0.00,Acu-Link.com,2013-01-28 09:15:00,
2013-01-28 03:30:00,60.1,58.1,29.74,South,180,12.5,-999.0,93,-99.99,,,0.00,Acu-Link.com,2013-01-28 09:30:00,
2013-01-28 03:45:00,60.3,58.3,29.75,WSW,247,5.8,-999.0,93,-99.99,,,0.00,Acu-Link.com,2013-01-28 09:45:00,
2013-01-28 04:00:00,59.9,57.9,29.75,SW,225,5.8,-999.0,93,-99.99,,,0.00,Acu-Link.com,2013-01-28 10:00:00,
2013-01-28 04:15:00,59.2,57.2,29.76,SW,225,5.8,-999.0,93,-99.99,,,0.00,Acu-Link.com,2013-01-28 10:15:00,
2013-01-28 04:30:00,59.0,57.3,29.76,WSW,247,6.3,-999.0,94,-99.99,,,0.00,Acu-Link.com,2013-01-28 10:30:00,
2013-01-28 04:45:00,58.8,57.1,29.75,SW,225,5.3,-999.0,94,-99.99,,,0.00,Acu-Link.com,2013-01-28 10:45:00,
2013-01-28 05:00:00,58.5,56.8,29.75,SW,225,4.2,-999.0,94,-99.99,,,0.00,Acu-Link.com,2013-01-28 11:00:00,
2013-01-28 05:16:00,58.1,56.7,29.75,WSW,247,6.3,-999.0,95,-99.99,,,0.00,Acu-Link.com,2013-01-28 11:16:00,
2013-01-28 05:31:00,57.9,56.5,29.75,SW,225,4.2,-999.0,95,-99.99,,,0.00,Acu-Link.com,2013-01-28 11:31:00,
2013-01-28 05:46:00,57.6,56.2,29.75,SW,225,3.2,-999.0,95,-99.99,,,0.00,Acu-Link.com,2013-01-28 11:46:00,
2013-01-28 06:01:00,57.6,56.2,29.75,West,270,3.7,-999.0,95,-99.99,,,0.00,Acu-Link.com,2013-01-28 12:01:00,
2013-01-28 06:16:00,57.2,56.1,29.75,West,270,3.2,-999.0,96,-99.99,,,0.00,Acu-Link.com,2013-01-28 12:16:00,
2013-01-28 06:31:00,56.1,55.0,29.75,South,180,4.7,-999.0,96,-99.99,,,0.00,Acu-Link.com,2013-01-28 12:31:00,
2013-01-28 06:46:00,55.9,54.8,29.76,SSW,202,4.2,-999.0,96,-99.99,,,0.00,Acu-Link.com,2013-01-28 12:46:00,
2013-01-28 07:01:00,55.8,55.0,29.76,South,180,5.3,-999.0,97,-99.99,,,0.00,Acu-Link.com,2013-01-28 13:01:00,
2013-01-28 07:16:00,55.8,55.0,29.77,SSW,202,4.7,-999.0,97,-99.99,,,0.00,Acu-Link.com,2013-01-28 13:16:00,
2013-01-28 07:32:00,55.8,55.0,29.77,South,180,3.7,-999.0,97,-99.99,,,0.00,Acu-Link.com,2013-01-28 13:32:00,
2013-01-28 07:47:00,55.6,54.8,29.78,South,180,4.7,-999.0,97,-99.99,,,0.00,Acu-Link.com,2013-01-28 13:47:00,
2013-01-28 08:02:00,56.7,55.9,29.77,South,180,3.2,-999.0,97,-99.99,,,0.01,Acu-Link.com,2013-01-28 14:02:00,
2013-01-28 08:17:00,56.8,55.7,29.77,SSE,157,2.2,-999.0,96,-99.99,,,0.04,Acu-Link.com,2013-01-28 14:17:00,
2013-01-28 08:32:00,56.5,55.7,29.78,SSE,157,0.0,-999.0,97,-99.99,,,0.04,Acu-Link.com,2013-01-28 14:32:00,
2013-01-28 08:47:00,56.5,55.7,29.78,SSE,157,2.2,-999.0,97,-99.99,,,0.04,Acu-Link.com,2013-01-28 14:47:00,
2013-01-28 09:02:00,56.5,55.7,29.77,SSE,157,2.7,-999.0,97,-99.99,,,0.04,Acu-Link.com,2013-01-28 15:02:00,
2013-01-28 09:17:00,56.7,55.9,29.78,SSE,157,2.7,-999.0,97,-99.99,,,0.04,Acu-Link.com,2013-01-28 15:17:00,
2013-01-28 09:32:00,57.4,56.3,29.78,SE,135,2.7,-999.0,96,-99.99,,,0.04,Acu-Link.com,2013-01-28 15:32:00,
2013-01-28 09:48:00,58.1,56.7,29.78,South,180,3.2,-999.0,95,-99.99,,,0.04,Acu-Link.com,2013-01-28 15:48:00,
2013-01-28 10:03:00,59.0,57.3,29.77,SSE,157,4.2,-999.0,94,-99.99,,,0.04,Acu-Link.com,2013-01-28 16:03:00,
2013-01-28 10:18:00,59.7,57.7,29.77,South,180,5.3,-999.0,93,-99.99,,,0.04,Acu-Link.com,2013-01-28 16:18:00,
2013-01-28 10:33:00,60.8,58.5,29.77,SSE,157,5.8,-999.0,92,-99.99,,,0.04,Acu-Link.com,2013-01-28 16:33:00,
2013-01-28 10:48:00,63.5,59.9,29.77,SSW,202,6.3,-999.0,88,-99.99,,,0.04,Acu-Link.com,2013-01-28 16:48:00,
2013-01-28 11:03:00,63.7,60.1,29.77,SSE,157,6.3,-999.0,88,-99.99,,,0.04,Acu-Link.com,2013-01-28 17:03:00,
2013-01-28 11:18:00,67.8,62.4,29.75,SSW,202,8.3,-999.0,83,-99.99,,,0.04,Acu-Link.com,2013-01-28 17:18:00,
2013-01-28 11:33:00,68.5,62.4,29.74,South,180,8.9,-999.0,81,-99.99,,,0.04,Acu-Link.com,2013-01-28 17:33:00,
2013-01-28 11:48:00,69.3,62.5,29.74,SSW,202,20.2,-999.0,79,-99.99,,,0.04,Acu-Link.com,2013-01-28 17:48:00,
2013-01-28 12:04:00,71.2,62.1,29.73,SSW,202,11.4,-999.0,73,-99.99,,,0.04,Acu-Link.com,2013-01-28 18:04:00,
2013-01-28 12:19:00,71.6,62.5,29.72,SSW,202,9.9,-999.0,73,-99.99,,,0.04,Acu-Link.com,2013-01-28 18:19:00,
2013-01-28 12:34:00,70.7,61.6,29.71,SSW,202,14.5,-999.0,73,-99.99,,,0.04,Acu-Link.com,2013-01-28 18:34:00,
2013-01-28 12:49:00,72.0,62.1,29.70,SSW,202,15.5,-999.0,71,-99.99,,,0.04,Acu-Link.com,2013-01-28 18:49:00,
2013-01-28 13:04:00,72.3,61.5,29.69,SSW,202,17.1,-999.0,69,-99.99,,,0.04,Acu-Link.com,2013-01-28 19:04:00,
2013-01-28 13:19:00,73.6,62.4,29.68,SSW,202,17.1,-999.0,68,-99.99,,,0.04,Acu-Link.com,2013-01-28 19:19:00,
2013-01-28 13:34:00,73.4,61.3,29.67,South,180,11.9,-999.0,66,-99.99,,,0.04,Acu-Link.com,2013-01-28 19:34:00,
2013-01-28 13:49:00,72.7,61.5,29.66,SSW,202,10.9,-999.0,68,-99.99,,,0.04,Acu-Link.com,2013-01-28 19:49:00,
2013-01-28 14:04:00,74.1,61.1,29.66,South,180,16.1,-999.0,64,-99.99,,,0.04,Acu-Link.com,2013-01-28 20:04:00,
2013-01-28 14:20:00,74.1,61.1,29.66,SW,225,14.5,-999.0,64,-99.99,,,0.04,Acu-Link.com,2013-01-28 20:20:00,
2013-01-28 14:35:00,73.6,61.5,29.65,SSW,202,14.5,-999.0,66,-99.99,,,0.04,Acu-Link.com,2013-01-28 20:35:00,
2013-01-28 14:50:00,72.3,61.1,29.65,SSW,202,18.1,-999.0,68,-99.99,,,0.04,Acu-Link.com,2013-01-28 20:50:00,
2013-01-28 15:05:00,73.2,61.6,29.65,SSW,202,11.4,-999.0,67,-99.99,,,0.04,Acu-Link.com,2013-01-28 21:05:00,
2013-01-28 15:20:00,72.7,62.3,29.65,South,180,20.2,-999.0,70,-99.99,,,0.04,Acu-Link.com,2013-01-28 21:20:00,
2013-01-28 15:35:00,72.9,62.9,29.65,South,180,12.5,-999.0,71,-99.99,,,0.04,Acu-Link.com,2013-01-28 21:35:00,
2013-01-28 15:50:00,71.6,62.9,29.65,South,180,17.6,-999.0,74,-99.99,,,0.04,Acu-Link.com,2013-01-28 21:50:00,
2013-01-28 16:05:00,71.1,63.1,29.65,South,180,16.1,-999.0,76,-99.99,,,0.04,Acu-Link.com,2013-01-28 22:05:00,
2013-01-28 16:21:00,70.5,62.6,29.63,South,180,14.0,-999.0,76,-99.99,,,0.04,Acu-Link.com,2013-01-28 22:21:00,
2013-01-28 16:36:00,71.1,63.5,29.63,South,180,11.4,-999.0,77,-99.99,,,0.04,Acu-Link.com,2013-01-28 22:36:00,
2013-01-28 16:51:00,70.3,63.1,29.63,South,180,11.9,-999.0,78,-99.99,,,0.04,Acu-Link.com,2013-01-28 22:51:00,
2013-01-28 17:06:00,70.3,63.1,29.63,SSW,202,12.5,-999.0,78,-99.99,,,0.04,Acu-Link.com,2013-01-28 23:06:00,
2013-01-28 17:21:00,70.3,62.4,29.62,South,180,14.5,-999.0,76,-99.99,,,0.04,Acu-Link.com,2013-01-28 23:21:00,
2013-01-28 17:36:00,69.4,61.9,29.62,South,180,14.5,-999.0,77,-99.99,,,0.04,Acu-Link.com,2013-01-28 23:36:00,
2013-01-28 17:51:00,69.1,61.9,29.62,SW,225,14.5,-999.0,78,-99.99,,,0.04,Acu-Link.com,2013-01-28 23:51:00,
2013-01-28 18:06:00,68.5,61.0,29.62,South,180,14.5,-999.0,77,-99.99,,,0.04,Acu-Link.com,2013-01-29 00:06:00,
2013-01-28 18:21:00,67.6,60.5,29.61,South,180,9.9,-999.0,78,-99.99,,,0.04,Acu-Link.com,2013-01-29 00:21:00,
2013-01-28 18:37:00,67.8,60.7,29.61,South,180,14.5,-999.0,78,-99.99,,,0.04,Acu-Link.com,2013-01-29 00:37:00,
2013-01-28 18:52:00,68.0,60.9,29.61,SSW,202,14.5,-999.0,78,-99.99,,,0.04,Acu-Link.com,2013-01-29 00:52:00,
2013-01-28 19:07:00,67.6,60.5,29.61,South,180,11.4,-999.0,78,-99.99,,,0.04,Acu-Link.com,2013-01-29 01:07:00,
2013-01-28 19:22:00,68.5,61.0,29.60,SSW,202,20.2,-999.0,77,-99.99,,,0.04,Acu-Link.com,2013-01-29 01:22:00,
2013-01-28 19:37:00,68.0,60.5,29.60,South,180,15.5,-999.0,77,-99.99,,,0.04,Acu-Link.com,2013-01-29 01:37:00,
2013-01-28 19:52:00,67.6,60.5,29.60,South,180,13.5,-999.0,78,-99.99,,,0.04,Acu-Link.com,2013-01-29 01:52:00,
2013-01-28 20:07:00,67.3,60.6,29.60,South,180,11.9,-999.0,79,-99.99,,,0.04,Acu-Link.com,2013-01-29 02:07:00,
2013-01-28 20:22:00,68.0,61.6,29.61,South,180,20.7,-999.0,80,-99.99,,,0.04,Acu-Link.com,2013-01-29 02:22:00,
2013-01-28 20:38:00,67.8,61.4,29.61,South,180,15.5,-999.0,80,-99.99,,,0.04,Acu-Link.com,2013-01-29 02:38:00,
2013-01-28 20:53:00,67.8,61.4,29.61,South,180,14.0,-999.0,80,-99.99,,,0.04,Acu-Link.com,2013-01-29 02:53:00,
2013-01-28 21:08:00,67.8,61.7,29.61,SSW,202,18.1,-999.0,81,-99.99,,,0.04,Acu-Link.com,2013-01-29 03:08:00,
2013-01-28 21:23:00,68.2,62.1,29.60,South,180,20.7,-999.0,81,-99.99,,,0.04,Acu-Link.com,2013-01-29 03:23:00,
2013-01-28 21:38:00,67.5,61.5,29.60,SSW,202,16.1,-999.0,81,-99.99,,,0.04,Acu-Link.com,2013-01-29 03:38:00,
2013-01-28 21:53:00,68.0,61.9,29.60,South,180,17.6,-999.0,81,-99.99,,,0.04,Acu-Link.com,2013-01-29 03:53:00,
2013-01-28 22:09:00,67.8,61.7,29.60,SSW,202,19.1,-999.0,81,-99.99,,,0.04,Acu-Link.com,2013-01-29 04:09:00,
2013-01-28 22:24:00,68.0,62.3,29.60,South,180,9.9,-999.0,82,-99.99,,,0.04,Acu-Link.com,2013-01-29 04:24:00,
2013-01-28 22:39:00,67.8,62.1,29.60,South,180,17.1,-999.0,82,-99.99,,,0.04,Acu-Link.com,2013-01-29 04:39:00,
2013-01-28 22:54:00,67.8,62.1,29.60,SSW,202,11.4,-999.0,82,-99.99,,,0.04,Acu-Link.com,2013-01-29 04:54:00,
2013-01-28 23:09:00,67.8,62.4,29.60,South,180,14.0,-999.0,83,-99.99,,,0.04,Acu-Link.com,2013-01-29 05:09:00,
2013-01-28 23:24:00,67.5,62.1,29.60,South,180,16.1,-999.0,83,-99.99,,,0.04,Acu-Link.com,2013-01-29 05:24:00,
2013-01-28 23:39:00,67.3,62.3,29.59,SSW,202,10.4,-999.0,84,-99.99,,,0.04,Acu-Link.com,2013-01-29 05:39:00,
2013-01-28 23:54:00,67.1,62.4,29.59,SSW,202,9.9,-999.0,85,-99.99,,,0.04,Acu-Link.com,2013-01-29 05:54:00,